sensor_id;sensor_type;location;lat;lon;timestamp;P1;durP1;ratioP1;P2;durP2;ratioP2
28714;SDS011;15886;49.170;14.572;2022-12-05T00:11:29;34.63;;;22.00;;
28714;SDS011;15886;49.170;14.572;2022-12-05T00:17:06;31.73;;;20.08;;
28714;SDS011;15886;49.170;14.572;2022-12-05T00:20:16;30.42;;;19.48;;
28714;SDS011;15886;49.170;14.572;2022-12-05T00:23:17;32.78;;;20.02;;
28714;SDS011;15886;49.170;14.572;2022-12-05T00:25:45;30.25;;;20.15;;
28714;SDS011;15886;49.170;14.572;2022-12-05T00:28:20;31.90;;;19.37;;
28714;SDS011;15886;49.170;14.572;2022-12-05T00:30:52;30.65;;;18.45;;
28714;SDS011;15886;49.170;14.572;2022-12-05T00:33:21;30.38;;;19.40;;
28714;SDS011;15886;49.170;14.572;2022-12-05T00:35:49;34.92;;;19.45;;
28714;SDS011;15886;49.170;14.572;2022-12-05T00:38:17;31.95;;;18.60;;
28714;SDS011;15886;49.170;14.572;2022-12-05T00:40:46;29.45;;;18.50;;
28714;SDS011;15886;49.170;14.572;2022-12-05T00:43:15;35.65;;;23.95;;
28714;SDS011;15886;49.170;14.572;2022-12-05T00:45:43;34.45;;;20.73;;
28714;SDS011;15886;49.170;14.572;2022-12-05T00:48:12;29.60;;;18.77;;
28714;SDS011;15886;49.170;14.572;2022-12-05T00:50:41;28.98;;;18.58;;
28714;SDS011;15886;49.170;14.572;2022-12-05T00:53:09;28.48;;;18.50;;
28714;SDS011;15886;49.170;14.572;2022-12-05T00:55:37;30.80;;;18.17;;
28714;SDS011;15886;49.170;14.572;2022-12-05T00:58:06;28.70;;;17.90;;
28714;SDS011;15886;49.170;14.572;2022-12-05T01:00:34;29.65;;;17.05;;
28714;SDS011;15886;49.170;14.572;2022-12-05T01:03:03;27.05;;;17.10;;
28714;SDS011;15886;49.170;14.572;2022-12-05T01:05:32;28.38;;;17.58;;
28714;SDS011;15886;49.170;14.572;2022-12-05T01:08:01;29.50;;;18.55;;
28714;SDS011;15886;49.170;14.572;2022-12-05T01:10:33;29.73;;;18.17;;
28714;SDS011;15886;49.170;14.572;2022-12-05T01:13:21;33.17;;;19.38;;
28714;SDS011;15886;49.170;14.572;2022-12-05T01:15:53;28.25;;;18.52;;
28714;SDS011;15886;49.170;14.572;2022-12-05T01:18:53;30.98;;;20.17;;
28714;SDS011;15886;49.170;14.572;2022-12-05T01:21:25;28.33;;;17.83;;
28714;SDS011;15886;49.170;14.572;2022-12-05T01:23:55;26.48;;;16.67;;
28714;SDS011;15886;49.170;14.572;2022-12-05T01:26:24;28.75;;;19.17;;
28714;SDS011;15886;49.170;14.572;2022-12-05T01:28:52;28.60;;;19.70;;
28714;SDS011;15886;49.170;14.572;2022-12-05T01:31:24;29.83;;;18.73;;
28714;SDS011;15886;49.170;14.572;2022-12-05T01:40:44;28.08;;;18.58;;
28714;SDS011;15886;49.170;14.572;2022-12-05T01:46:49;28.40;;;18.25;;
28714;SDS011;15886;49.170;14.572;2022-12-05T02:00:22;25.25;;;16.65;;
28714;SDS011;15886;49.170;14.572;2022-12-05T02:03:16;25.20;;;16.58;;
28714;SDS011;15886;49.170;14.572;2022-12-05T02:06:35;27.85;;;17.23;;
28714;SDS011;15886;49.170;14.572;2022-12-05T02:09:19;26.38;;;16.52;;
28714;SDS011;15886;49.170;14.572;2022-12-05T02:11:58;27.65;;;17.42;;
28714;SDS011;15886;49.170;14.572;2022-12-05T02:21:07;28.73;;;18.30;;
28714;SDS011;15886;49.170;14.572;2022-12-05T02:26:16;29.58;;;18.85;;
28714;SDS011;15886;49.170;14.572;2022-12-05T02:29:03;27.13;;;17.98;;
28714;SDS011;15886;49.170;14.572;2022-12-05T02:40:16;26.63;;;17.33;;
28714;SDS011;15886;49.170;14.572;2022-12-05T02:43:10;31.77;;;18.55;;
28714;SDS011;15886;49.170;14.572;2022-12-05T02:45:58;25.88;;;18.10;;
28714;SDS011;15886;49.170;14.572;2022-12-05T02:52:54;25.52;;;17.70;;
28714;SDS011;15886;49.170;14.572;2022-12-05T02:56:03;28.25;;;18.25;;
28714;SDS011;15886;49.170;14.572;2022-12-05T03:16:19;26.92;;;17.92;;
28714;SDS011;15886;49.170;14.572;2022-12-05T03:40:33;23.92;;;15.68;;
28714;SDS011;15886;49.170;14.572;2022-12-05T04:55:21;26.50;;;15.70;;
28714;SDS011;15886;49.170;14.572;2022-12-05T04:58:21;28.58;;;15.77;;
28714;SDS011;15886;49.170;14.572;2022-12-05T05:04:55;28.95;;;15.35;;
28714;SDS011;15886;49.170;14.572;2022-12-05T05:07:51;26.98;;;15.80;;
28714;SDS011;15886;49.170;14.572;2022-12-05T05:10:38;22.30;;;14.93;;
28714;SDS011;15886;49.170;14.572;2022-12-05T05:13:20;29.00;;;14.77;;
28714;SDS011;15886;49.170;14.572;2022-12-05T05:15:48;26.63;;;15.20;;
28714;SDS011;15886;49.170;14.572;2022-12-05T05:18:17;28.85;;;16.17;;
28714;SDS011;15886;49.170;14.572;2022-12-05T05:20:49;23.95;;;14.57;;
28714;SDS011;15886;49.170;14.572;2022-12-05T05:23:22;25.33;;;14.38;;
28714;SDS011;15886;49.170;14.572;2022-12-05T05:26:34;29.33;;;17.05;;
28714;SDS011;15886;49.170;14.572;2022-12-05T05:47:09;26.63;;;16.40;;
28714;SDS011;15886;49.170;14.572;2022-12-05T05:50:18;28.08;;;15.18;;
28714;SDS011;15886;49.170;14.572;2022-12-05T05:55:38;26.77;;;14.88;;
28714;SDS011;15886;49.170;14.572;2022-12-05T05:58:07;24.33;;;15.25;;
28714;SDS011;15886;49.170;14.572;2022-12-05T06:00:38;25.58;;;15.05;;
28714;SDS011;15886;49.170;14.572;2022-12-05T06:03:15;32.17;;;18.67;;
28714;SDS011;15886;49.170;14.572;2022-12-05T06:06:27;26.75;;;16.17;;
28714;SDS011;15886;49.170;14.572;2022-12-05T07:31:02;29.63;;;17.95;;
28714;SDS011;15886;49.170;14.572;2022-12-05T07:33:33;30.00;;;17.25;;
28714;SDS011;15886;49.170;14.572;2022-12-05T10:46:19;26.90;;;16.88;;
28714;SDS011;15886;49.170;14.572;2022-12-05T10:55:30;26.60;;;15.88;;
28714;SDS011;15886;49.170;14.572;2022-12-05T11:05:11;21.20;;;12.82;;
28714;SDS011;15886;49.170;14.572;2022-12-05T11:08:03;21.30;;;12.75;;
28714;SDS011;15886;49.170;14.572;2022-12-05T11:11:35;20.02;;;12.55;;
28714;SDS011;15886;49.170;14.572;2022-12-05T11:33:34;20.88;;;12.70;;
28714;SDS011;15886;49.170;14.572;2022-12-05T11:53:59;13.75;;;9.93;;
28714;SDS011;15886;49.170;14.572;2022-12-05T12:21:00;21.65;;;12.45;;
28714;SDS011;15886;49.170;14.572;2022-12-05T12:24:28;19.13;;;12.45;;
28714;SDS011;15886;49.170;14.572;2022-12-05T13:13:34;21.17;;;14.07;;
28714;SDS011;15886;49.170;14.572;2022-12-05T13:44:34;21.33;;;13.57;;
28714;SDS011;15886;49.170;14.572;2022-12-05T14:00:25;46.17;;;26.58;;
28714;SDS011;15886;49.170;14.572;2022-12-05T14:07:54;37.13;;;23.67;;
28714;SDS011;15886;49.170;14.572;2022-12-05T14:17:08;46.63;;;26.70;;
28714;SDS011;15886;49.170;14.572;2022-12-05T14:34:12;23.45;;;15.68;;
28714;SDS011;15886;49.170;14.572;2022-12-05T14:53:37;31.38;;;20.13;;
28714;SDS011;15886;49.170;14.572;2022-12-05T14:56:29;30.23;;;18.52;;
28714;SDS011;15886;49.170;14.572;2022-12-05T15:02:46;31.17;;;19.33;;
28714;SDS011;15886;49.170;14.572;2022-12-05T15:05:39;30.08;;;18.73;;
28714;SDS011;15886;49.170;14.572;2022-12-05T15:08:33;29.15;;;19.30;;
28714;SDS011;15886;49.170;14.572;2022-12-05T15:11:19;34.33;;;20.08;;
28714;SDS011;15886;49.170;14.572;2022-12-05T15:14:12;30.27;;;20.60;;
28714;SDS011;15886;49.170;14.572;2022-12-05T15:17:53;23.88;;;13.75;;
28714;SDS011;15886;49.170;14.572;2022-12-05T15:26:01;25.35;;;14.73;;
28714;SDS011;15886;49.170;14.572;2022-12-05T16:33:02;35.90;;;22.10;;
28714;SDS011;15886;49.170;14.572;2022-12-05T16:36:45;68.55;;;37.55;;
28714;SDS011;15886;49.170;14.572;2022-12-05T16:39:16;45.70;;;27.48;;
28714;SDS011;15886;49.170;14.572;2022-12-05T16:41:48;43.33;;;26.30;;
28714;SDS011;15886;49.170;14.572;2022-12-05T16:47:21;29.13;;;17.52;;
28714;SDS011;15886;49.170;14.572;2022-12-05T16:49:53;34.10;;;22.02;;
28714;SDS011;15886;49.170;14.572;2022-12-05T16:52:25;33.65;;;21.23;;
28714;SDS011;15886;49.170;14.572;2022-12-05T16:54:57;40.33;;;25.73;;
28714;SDS011;15886;49.170;14.572;2022-12-05T16:58:34;33.95;;;20.85;;
28714;SDS011;15886;49.170;14.572;2022-12-05T17:01:23;34.70;;;22.05;;
28714;SDS011;15886;49.170;14.572;2022-12-05T17:19:28;34.30;;;20.80;;
28714;SDS011;15886;49.170;14.572;2022-12-05T17:26:03;32.78;;;21.05;;
28714;SDS011;15886;49.170;14.572;2022-12-05T17:29:27;34.13;;;20.13;;
28714;SDS011;15886;49.170;14.572;2022-12-05T17:36:31;39.63;;;23.17;;
28714;SDS011;15886;49.170;14.572;2022-12-05T17:41:56;44.55;;;25.02;;
28714;SDS011;15886;49.170;14.572;2022-12-05T17:48:00;31.48;;;19.65;;
28714;SDS011;15886;49.170;14.572;2022-12-05T18:29:49;40.35;;;26.00;;
28714;SDS011;15886;49.170;14.572;2022-12-05T18:32:20;46.90;;;28.63;;
28714;SDS011;15886;49.170;14.572;2022-12-05T18:34:51;81.25;;;45.17;;
28714;SDS011;15886;49.170;14.572;2022-12-05T18:38:08;55.72;;;32.92;;
28714;SDS011;15886;49.170;14.572;2022-12-05T18:40:43;73.93;;;39.35;;
28714;SDS011;15886;49.170;14.572;2022-12-05T18:43:29;69.55;;;37.67;;
28714;SDS011;15886;49.170;14.572;2022-12-05T18:46:03;68.50;;;37.08;;
28714;SDS011;15886;49.170;14.572;2022-12-05T18:48:37;60.25;;;35.47;;
28714;SDS011;15886;49.170;14.572;2022-12-05T18:51:14;70.88;;;37.85;;
28714;SDS011;15886;49.170;14.572;2022-12-05T18:57:34;48.15;;;28.13;;
28714;SDS011;15886;49.170;14.572;2022-12-05T19:00:11;63.17;;;36.22;;
28714;SDS011;15886;49.170;14.572;2022-12-05T19:03:09;163.88;;;99.28;;
28714;SDS011;15886;49.170;14.572;2022-12-05T19:05:54;84.80;;;50.83;;
28714;SDS011;15886;49.170;14.572;2022-12-05T19:08:56;88.63;;;49.33;;
28714;SDS011;15886;49.170;14.572;2022-12-05T19:12:24;114.47;;;49.40;;
28714;SDS011;15886;49.170;14.572;2022-12-05T19:14:54;85.32;;;42.00;;
28714;SDS011;15886;49.170;14.572;2022-12-05T19:17:24;57.42;;;33.80;;
28714;SDS011;15886;49.170;14.572;2022-12-05T19:19:56;52.28;;;31.90;;
28714;SDS011;15886;49.170;14.572;2022-12-05T19:22:25;52.88;;;31.73;;
28714;SDS011;15886;49.170;14.572;2022-12-05T19:25:27;43.72;;;29.00;;
28714;SDS011;15886;49.170;14.572;2022-12-05T19:27:56;41.25;;;27.88;;
28714;SDS011;15886;49.170;14.572;2022-12-05T19:30:24;59.17;;;32.55;;
28714;SDS011;15886;49.170;14.572;2022-12-05T19:32:53;103.53;;;50.65;;
28714;SDS011;15886;49.170;14.572;2022-12-05T19:35:22;83.22;;;40.65;;
28714;SDS011;15886;49.170;14.572;2022-12-05T19:37:53;78.55;;;41.42;;
28714;SDS011;15886;49.170;14.572;2022-12-05T19:40:28;76.82;;;41.20;;
28714;SDS011;15886;49.170;14.572;2022-12-05T19:42:56;69.35;;;39.60;;
28714;SDS011;15886;49.170;14.572;2022-12-05T19:45:36;45.75;;;27.08;;
28714;SDS011;15886;49.170;14.572;2022-12-05T19:48:35;47.63;;;27.30;;
28714;SDS011;15886;49.170;14.572;2022-12-05T19:51:04;47.88;;;29.17;;
28714;SDS011;15886;49.170;14.572;2022-12-05T19:53:34;43.28;;;26.38;;
28714;SDS011;15886;49.170;14.572;2022-12-05T19:56:06;60.58;;;36.35;;
28714;SDS011;15886;49.170;14.572;2022-12-05T19:58:36;56.72;;;33.70;;
28714;SDS011;15886;49.170;14.572;2022-12-05T20:03:35;73.50;;;42.00;;
28714;SDS011;15886;49.170;14.572;2022-12-05T20:06:05;74.20;;;39.08;;
28714;SDS011;15886;49.170;14.572;2022-12-05T20:08:34;48.28;;;29.88;;
28714;SDS011;15886;49.170;14.572;2022-12-05T20:11:08;40.53;;;25.05;;
28714;SDS011;15886;49.170;14.572;2022-12-05T20:16:12;34.80;;;22.23;;
28714;SDS011;15886;49.170;14.572;2022-12-05T20:18:41;43.08;;;21.83;;
28714;SDS011;15886;49.170;14.572;2022-12-05T20:21:11;31.23;;;19.80;;
28714;SDS011;15886;49.170;14.572;2022-12-05T20:23:39;41.13;;;25.08;;
28714;SDS011;15886;49.170;14.572;2022-12-05T20:26:18;31.45;;;20.80;;
28714;SDS011;15886;49.170;14.572;2022-12-05T20:28:50;32.65;;;21.38;;
28714;SDS011;15886;49.170;14.572;2022-12-05T20:31:19;41.72;;;22.10;;
28714;SDS011;15886;49.170;14.572;2022-12-05T20:33:49;36.83;;;21.60;;
28714;SDS011;15886;49.170;14.572;2022-12-05T20:36:24;34.95;;;21.20;;
28714;SDS011;15886;49.170;14.572;2022-12-05T20:39:04;33.38;;;19.65;;
28714;SDS011;15886;49.170;14.572;2022-12-05T20:41:33;46.00;;;19.98;;
28714;SDS011;15886;49.170;14.572;2022-12-05T20:44:09;32.40;;;19.75;;
28714;SDS011;15886;49.170;14.572;2022-12-05T20:46:44;42.13;;;24.27;;
28714;SDS011;15886;49.170;14.572;2022-12-05T20:49:26;128.18;;;55.08;;
28714;SDS011;15886;49.170;14.572;2022-12-05T20:51:56;65.55;;;34.45;;
28714;SDS011;15886;49.170;14.572;2022-12-05T20:54:24;66.32;;;34.88;;
28714;SDS011;15886;49.170;14.572;2022-12-05T20:56:53;49.33;;;26.80;;
28714;SDS011;15886;49.170;14.572;2022-12-05T20:59:43;49.65;;;29.52;;
28714;SDS011;15886;49.170;14.572;2022-12-05T21:02:11;55.22;;;32.97;;
28714;SDS011;15886;49.170;14.572;2022-12-05T21:04:39;77.70;;;42.88;;
28714;SDS011;15886;49.170;14.572;2022-12-05T21:07:08;49.38;;;29.83;;
28714;SDS011;15886;49.170;14.572;2022-12-05T21:09:36;47.28;;;27.50;;
28714;SDS011;15886;49.170;14.572;2022-12-05T21:12:04;44.60;;;28.77;;
28714;SDS011;15886;49.170;14.572;2022-12-05T21:14:33;40.22;;;25.17;;
28714;SDS011;15886;49.170;14.572;2022-12-05T21:17:02;37.78;;;23.55;;
28714;SDS011;15886;49.170;14.572;2022-12-05T21:19:31;34.33;;;22.38;;
28714;SDS011;15886;49.170;14.572;2022-12-05T21:21:59;35.13;;;20.58;;
28714;SDS011;15886;49.170;14.572;2022-12-05T21:24:28;37.20;;;23.30;;
28714;SDS011;15886;49.170;14.572;2022-12-05T21:26:56;39.13;;;23.75;;
28714;SDS011;15886;49.170;14.572;2022-12-05T21:29:24;42.05;;;24.77;;
28714;SDS011;15886;49.170;14.572;2022-12-05T21:31:53;38.80;;;23.55;;
28714;SDS011;15886;49.170;14.572;2022-12-05T21:34:21;41.67;;;25.00;;
28714;SDS011;15886;49.170;14.572;2022-12-05T21:36:50;43.28;;;23.50;;
28714;SDS011;15886;49.170;14.572;2022-12-05T21:39:32;46.17;;;26.02;;
28714;SDS011;15886;49.170;14.572;2022-12-05T21:42:00;34.95;;;21.15;;
28714;SDS011;15886;49.170;14.572;2022-12-05T21:44:31;36.55;;;22.40;;
28714;SDS011;15886;49.170;14.572;2022-12-05T21:46:59;41.05;;;24.33;;
28714;SDS011;15886;49.170;14.572;2022-12-05T21:49:32;40.60;;;23.83;;
28714;SDS011;15886;49.170;14.572;2022-12-05T21:52:00;38.25;;;21.48;;
28714;SDS011;15886;49.170;14.572;2022-12-05T21:54:28;40.88;;;22.73;;
28714;SDS011;15886;49.170;14.572;2022-12-05T21:56:57;34.70;;;19.65;;
28714;SDS011;15886;49.170;14.572;2022-12-05T21:59:34;34.88;;;20.88;;
28714;SDS011;15886;49.170;14.572;2022-12-05T22:02:05;33.67;;;20.85;;
28714;SDS011;15886;49.170;14.572;2022-12-05T22:04:33;35.55;;;20.27;;
28714;SDS011;15886;49.170;14.572;2022-12-05T22:07:02;24.98;;;14.88;;
28714;SDS011;15886;49.170;14.572;2022-12-05T22:09:30;29.40;;;18.25;;
28714;SDS011;15886;49.170;14.572;2022-12-05T22:12:01;26.90;;;17.55;;
28714;SDS011;15886;49.170;14.572;2022-12-05T22:14:32;28.92;;;17.25;;
28714;SDS011;15886;49.170;14.572;2022-12-05T22:17:01;29.40;;;17.05;;
28714;SDS011;15886;49.170;14.572;2022-12-05T22:19:29;36.15;;;18.58;;
28714;SDS011;15886;49.170;14.572;2022-12-05T22:21:57;30.15;;;17.15;;
28714;SDS011;15886;49.170;14.572;2022-12-05T22:24:26;26.98;;;16.67;;
28714;SDS011;15886;49.170;14.572;2022-12-05T22:26:55;29.95;;;17.25;;
28714;SDS011;15886;49.170;14.572;2022-12-05T22:29:26;27.50;;;15.40;;
28714;SDS011;15886;49.170;14.572;2022-12-05T22:31:54;35.10;;;18.08;;
28714;SDS011;15886;49.170;14.572;2022-12-05T22:34:22;25.77;;;15.88;;
28714;SDS011;15886;49.170;14.572;2022-12-05T22:36:50;27.58;;;17.02;;
28714;SDS011;15886;49.170;14.572;2022-12-05T22:39:19;26.38;;;16.38;;
28714;SDS011;15886;49.170;14.572;2022-12-05T22:41:47;27.65;;;16.05;;
28714;SDS011;15886;49.170;14.572;2022-12-05T22:44:15;31.05;;;17.10;;
28714;SDS011;15886;49.170;14.572;2022-12-05T22:46:44;26.90;;;16.45;;
28714;SDS011;15886;49.170;14.572;2022-12-05T22:49:12;29.88;;;15.82;;
28714;SDS011;15886;49.170;14.572;2022-12-05T22:51:40;26.50;;;14.75;;
28714;SDS011;15886;49.170;14.572;2022-12-05T22:54:09;22.48;;;13.63;;
28714;SDS011;15886;49.170;14.572;2022-12-05T22:56:46;21.77;;;13.88;;
28714;SDS011;15886;49.170;14.572;2022-12-05T22:59:26;24.02;;;12.90;;
28714;SDS011;15886;49.170;14.572;2022-12-05T23:01:54;23.35;;;14.32;;
28714;SDS011;15886;49.170;14.572;2022-12-05T23:04:22;22.13;;;13.43;;
28714;SDS011;15886;49.170;14.572;2022-12-05T23:06:54;19.30;;;11.75;;
28714;SDS011;15886;49.170;14.572;2022-12-05T23:09:22;17.10;;;10.98;;
28714;SDS011;15886;49.170;14.572;2022-12-05T23:11:51;19.45;;;10.68;;
28714;SDS011;15886;49.170;14.572;2022-12-05T23:14:19;18.10;;;11.10;;
28714;SDS011;15886;49.170;14.572;2022-12-05T23:16:48;16.73;;;10.90;;
28714;SDS011;15886;49.170;14.572;2022-12-05T23:19:23;14.88;;;10.13;;
28714;SDS011;15886;49.170;14.572;2022-12-05T23:21:57;14.45;;;9.45;;
28714;SDS011;15886;49.170;14.572;2022-12-05T23:24:27;14.40;;;7.50;;
28714;SDS011;15886;49.170;14.572;2022-12-05T23:26:56;9.43;;;6.07;;
28714;SDS011;15886;49.170;14.572;2022-12-05T23:29:26;11.85;;;6.53;;
28714;SDS011;15886;49.170;14.572;2022-12-05T23:32:06;8.40;;;6.10;;
28714;SDS011;15886;49.170;14.572;2022-12-05T23:34:34;7.97;;;5.72;;
28714;SDS011;15886;49.170;14.572;2022-12-05T23:37:02;6.63;;;4.78;;
28714;SDS011;15886;49.170;14.572;2022-12-05T23:39:33;5.82;;;3.88;;
28714;SDS011;15886;49.170;14.572;2022-12-05T23:42:01;6.85;;;5.40;;
28714;SDS011;15886;49.170;14.572;2022-12-05T23:44:30;5.63;;;4.07;;
28714;SDS011;15886;49.170;14.572;2022-12-05T23:46:58;4.82;;;3.72;;
28714;SDS011;15886;49.170;14.572;2022-12-05T23:49:26;5.80;;;3.63;;
28714;SDS011;15886;49.170;14.572;2022-12-05T23:51:54;5.57;;;3.67;;
28714;SDS011;15886;49.170;14.572;2022-12-05T23:54:29;6.32;;;4.13;;
28714;SDS011;15886;49.170;14.572;2022-12-05T23:56:57;6.88;;;4.55;;
28714;SDS011;15886;49.170;14.572;2022-12-05T23:59:32;5.93;;;3.80;;
